sensor_id;sensor_type;location;lat;lon;timestamp;P1;durP1;ratioP1;P2;durP2;ratioP2
781;SDS011;374;52.568;13.402;2023-02-12T00:01:30;15.37;;;9.20;;
781;SDS011;374;52.568;13.402;2023-02-12T00:03:56;17.13;;;8.27;;
781;SDS011;374;52.568;13.402;2023-02-12T00:06:21;11.63;;;6.97;;
781;SDS011;374;52.568;13.402;2023-02-12T00:08:48;11.43;;;7.43;;
781;SDS011;374;52.568;13.402;2023-02-12T00:11:15;16.43;;;8.20;;
781;SDS011;374;52.568;13.402;2023-02-12T00:13:43;10.30;;;7.90;;
781;SDS011;374;52.568;13.402;2023-02-12T00:16:15;14.00;;;7.27;;
781;SDS011;374;52.568;13.402;2023-02-12T00:18:42;14.80;;;7.20;;
781;SDS011;374;52.568;13.402;2023-02-12T00:21:08;9.70;;;6.60;;
781;SDS011;374;52.568;13.402;2023-02-12T00:23:34;10.73;;;6.27;;
781;SDS011;374;52.568;13.402;2023-02-12T00:26:05;14.53;;;7.27;;
781;SDS011;374;52.568;13.402;2023-02-12T00:28:31;17.67;;;7.87;;
781;SDS011;374;52.568;13.402;2023-02-12T00:30:57;12.13;;;7.43;;
781;SDS011;374;52.568;13.402;2023-02-12T00:33:22;17.10;;;7.63;;
781;SDS011;374;52.568;13.402;2023-02-12T00:35:55;16.60;;;7.70;;
781;SDS011;374;52.568;13.402;2023-02-12T00:38:20;19.57;;;7.80;;
781;SDS011;374;52.568;13.402;2023-02-12T00:41:01;12.57;;;6.93;;
781;SDS011;374;52.568;13.402;2023-02-12T00:43:28;12.40;;;7.20;;
781;SDS011;374;52.568;13.402;2023-02-12T00:45:53;10.37;;;6.47;;
781;SDS011;374;52.568;13.402;2023-02-12T00:48:19;10.67;;;6.80;;
781;SDS011;374;52.568;13.402;2023-02-12T00:50:45;11.77;;;6.50;;
781;SDS011;374;52.568;13.402;2023-02-12T00:53:12;17.83;;;6.83;;
781;SDS011;374;52.568;13.402;2023-02-12T00:55:38;10.50;;;6.53;;
781;SDS011;374;52.568;13.402;2023-02-12T00:58:04;16.63;;;6.80;;
781;SDS011;374;52.568;13.402;2023-02-12T01:00:30;13.47;;;6.10;;
781;SDS011;374;52.568;13.402;2023-02-12T01:02:55;13.13;;;8.80;;
781;SDS011;374;52.568;13.402;2023-02-12T01:05:21;14.33;;;7.47;;
781;SDS011;374;52.568;13.402;2023-02-12T01:07:50;16.23;;;7.00;;
781;SDS011;374;52.568;13.402;2023-02-12T01:10:16;16.67;;;7.73;;
781;SDS011;374;52.568;13.402;2023-02-12T01:12:42;16.60;;;7.77;;
781;SDS011;374;52.568;13.402;2023-02-12T01:15:07;13.07;;;7.10;;
781;SDS011;374;52.568;13.402;2023-02-12T01:17:36;12.90;;;7.20;;
781;SDS011;374;52.568;13.402;2023-02-12T01:20:02;13.20;;;5.80;;
781;SDS011;374;52.568;13.402;2023-02-12T01:22:32;18.70;;;7.20;;
781;SDS011;374;52.568;13.402;2023-02-12T01:24:58;20.13;;;7.17;;
781;SDS011;374;52.568;13.402;2023-02-12T01:27:24;11.60;;;7.00;;
781;SDS011;374;52.568;13.402;2023-02-12T01:29:50;11.30;;;6.20;;
781;SDS011;374;52.568;13.402;2023-02-12T01:32:15;14.20;;;7.30;;
781;SDS011;374;52.568;13.402;2023-02-12T01:34:41;11.63;;;6.10;;
781;SDS011;374;52.568;13.402;2023-02-12T01:37:06;16.63;;;6.73;;
781;SDS011;374;52.568;13.402;2023-02-12T01:39:32;11.50;;;6.57;;
781;SDS011;374;52.568;13.402;2023-02-12T01:41:58;11.07;;;6.30;;
781;SDS011;374;52.568;13.402;2023-02-12T01:44:26;12.57;;;7.20;;
781;SDS011;374;52.568;13.402;2023-02-12T01:46:54;11.13;;;5.63;;
781;SDS011;374;52.568;13.402;2023-02-12T01:49:31;16.37;;;6.57;;
781;SDS011;374;52.568;13.402;2023-02-12T01:52:16;7.10;;;5.13;;
781;SDS011;374;52.568;13.402;2023-02-12T01:54:47;14.90;;;7.13;;
781;SDS011;374;52.568;13.402;2023-02-12T01:57:14;12.30;;;6.13;;
781;SDS011;374;52.568;13.402;2023-02-12T01:59:41;12.63;;;6.47;;
781;SDS011;374;52.568;13.402;2023-02-12T02:02:09;9.67;;;6.00;;
781;SDS011;374;52.568;13.402;2023-02-12T02:04:36;13.00;;;5.40;;
781;SDS011;374;52.568;13.402;2023-02-12T02:07:14;12.93;;;5.40;;
781;SDS011;374;52.568;13.402;2023-02-12T02:09:40;17.07;;;6.37;;
781;SDS011;374;52.568;13.402;2023-02-12T02:12:06;15.07;;;5.70;;
781;SDS011;374;52.568;13.402;2023-02-12T02:14:51;14.70;;;5.60;;
781;SDS011;374;52.568;13.402;2023-02-12T02:17:27;13.47;;;5.83;;
781;SDS011;374;52.568;13.402;2023-02-12T02:22:47;14.33;;;6.07;;
781;SDS011;374;52.568;13.402;2023-02-12T02:25:56;13.50;;;5.80;;
781;SDS011;374;52.568;13.402;2023-02-12T02:31:43;14.77;;;6.33;;
781;SDS011;374;52.568;13.402;2023-02-12T02:37:28;21.57;;;6.80;;
781;SDS011;374;52.568;13.402;2023-02-12T02:40:00;11.30;;;5.73;;
781;SDS011;374;52.568;13.402;2023-02-12T02:45:23;16.63;;;6.30;;
781;SDS011;374;52.568;13.402;2023-02-12T02:47:55;13.13;;;6.23;;
781;SDS011;374;52.568;13.402;2023-02-12T02:50:26;15.67;;;5.57;;
781;SDS011;374;52.568;13.402;2023-02-12T02:53:01;12.53;;;5.57;;
781;SDS011;374;52.568;13.402;2023-02-12T02:55:34;15.90;;;7.27;;
781;SDS011;374;52.568;13.402;2023-02-12T02:58:15;8.33;;;5.37;;
781;SDS011;374;52.568;13.402;2023-02-12T03:00:47;13.73;;;6.10;;
781;SDS011;374;52.568;13.402;2023-02-12T03:03:31;10.90;;;5.30;;
781;SDS011;374;52.568;13.402;2023-02-12T03:06:13;16.30;;;6.47;;
781;SDS011;374;52.568;13.402;2023-02-12T03:08:57;10.87;;;5.67;;
781;SDS011;374;52.568;13.402;2023-02-12T03:11:31;10.30;;;6.00;;
781;SDS011;374;52.568;13.402;2023-02-12T03:14:01;14.87;;;5.37;;
781;SDS011;374;52.568;13.402;2023-02-12T03:16:30;10.97;;;5.53;;
781;SDS011;374;52.568;13.402;2023-02-12T03:19:01;12.33;;;5.97;;
781;SDS011;374;52.568;13.402;2023-02-12T03:21:41;13.67;;;5.80;;
781;SDS011;374;52.568;13.402;2023-02-12T03:26:50;14.27;;;6.60;;
781;SDS011;374;52.568;13.402;2023-02-12T03:29:20;10.07;;;4.93;;
781;SDS011;374;52.568;13.402;2023-02-12T03:34:47;12.63;;;6.10;;
781;SDS011;374;52.568;13.402;2023-02-12T03:37:18;10.83;;;6.30;;
781;SDS011;374;52.568;13.402;2023-02-12T03:42:35;14.70;;;5.37;;
781;SDS011;374;52.568;13.402;2023-02-12T03:45:09;12.93;;;5.97;;
781;SDS011;374;52.568;13.402;2023-02-12T03:50:19;10.67;;;6.10;;
781;SDS011;374;52.568;13.402;2023-02-12T03:52:51;14.50;;;6.40;;
781;SDS011;374;52.568;13.402;2023-02-12T03:55:17;16.93;;;6.17;;
781;SDS011;374;52.568;13.402;2023-02-12T03:57:43;16.00;;;7.07;;
781;SDS011;374;52.568;13.402;2023-02-12T04:00:20;20.03;;;6.13;;
781;SDS011;374;52.568;13.402;2023-02-12T04:02:47;8.50;;;6.50;;
781;SDS011;374;52.568;13.402;2023-02-12T04:05:18;16.40;;;6.30;;
781;SDS011;374;52.568;13.402;2023-02-12T04:07:52;14.13;;;6.20;;
781;SDS011;374;52.568;13.402;2023-02-12T04:10:33;19.13;;;7.33;;
781;SDS011;374;52.568;13.402;2023-02-12T04:13:27;14.13;;;6.37;;
781;SDS011;374;52.568;13.402;2023-02-12T04:16:21;10.37;;;5.50;;
781;SDS011;374;52.568;13.402;2023-02-12T04:18:58;16.00;;;6.57;;
781;SDS011;374;52.568;13.402;2023-02-12T04:24:20;14.03;;;6.67;;
781;SDS011;374;52.568;13.402;2023-02-12T04:30:02;14.80;;;6.27;;
781;SDS011;374;52.568;13.402;2023-02-12T04:37:52;15.10;;;7.37;;
781;SDS011;374;52.568;13.402;2023-02-12T04:40:24;13.80;;;6.50;;
781;SDS011;374;52.568;13.402;2023-02-12T04:42:50;20.03;;;8.90;;
781;SDS011;374;52.568;13.402;2023-02-12T04:45:21;15.20;;;7.37;;
781;SDS011;374;52.568;13.402;2023-02-12T04:47:51;15.03;;;7.00;;
781;SDS011;374;52.568;13.402;2023-02-12T04:50:17;16.80;;;7.10;;
781;SDS011;374;52.568;13.402;2023-02-12T04:52:42;19.60;;;8.83;;
781;SDS011;374;52.568;13.402;2023-02-12T04:55:08;18.00;;;8.13;;
781;SDS011;374;52.568;13.402;2023-02-12T04:57:34;13.90;;;6.90;;
781;SDS011;374;52.568;13.402;2023-02-12T04:59:59;23.80;;;8.93;;
781;SDS011;374;52.568;13.402;2023-02-12T05:02:25;17.27;;;7.53;;
781;SDS011;374;52.568;13.402;2023-02-12T05:04:50;21.73;;;7.57;;
781;SDS011;374;52.568;13.402;2023-02-12T05:07:16;19.27;;;7.27;;
781;SDS011;374;52.568;13.402;2023-02-12T05:09:42;13.57;;;6.40;;
781;SDS011;374;52.568;13.402;2023-02-12T05:12:07;15.17;;;6.60;;
781;SDS011;374;52.568;13.402;2023-02-12T05:14:33;19.40;;;6.10;;
781;SDS011;374;52.568;13.402;2023-02-12T05:16:58;8.10;;;6.67;;
781;SDS011;374;52.568;13.402;2023-02-12T05:19:24;11.03;;;6.07;;
781;SDS011;374;52.568;13.402;2023-02-12T05:21:49;23.97;;;7.97;;
781;SDS011;374;52.568;13.402;2023-02-12T05:24:15;17.93;;;7.10;;
781;SDS011;374;52.568;13.402;2023-02-12T05:26:41;16.43;;;7.10;;
781;SDS011;374;52.568;13.402;2023-02-12T05:29:06;12.43;;;7.17;;
781;SDS011;374;52.568;13.402;2023-02-12T05:31:32;9.93;;;6.03;;
781;SDS011;374;52.568;13.402;2023-02-12T05:33:58;11.63;;;5.93;;
781;SDS011;374;52.568;13.402;2023-02-12T05:36:24;12.93;;;6.53;;
781;SDS011;374;52.568;13.402;2023-02-12T05:38:50;12.10;;;6.03;;
781;SDS011;374;52.568;13.402;2023-02-12T05:41:21;14.67;;;6.17;;
781;SDS011;374;52.568;13.402;2023-02-12T05:43:48;16.60;;;7.27;;
781;SDS011;374;52.568;13.402;2023-02-12T05:46:14;12.60;;;6.73;;
781;SDS011;374;52.568;13.402;2023-02-12T05:48:40;19.57;;;6.60;;
781;SDS011;374;52.568;13.402;2023-02-12T05:51:10;17.43;;;6.07;;
781;SDS011;374;52.568;13.402;2023-02-12T05:53:38;15.77;;;5.87;;
781;SDS011;374;52.568;13.402;2023-02-12T05:56:06;12.43;;;5.07;;
781;SDS011;374;52.568;13.402;2023-02-12T05:58:34;13.80;;;6.60;;
781;SDS011;374;52.568;13.402;2023-02-12T06:01:00;12.53;;;6.23;;
781;SDS011;374;52.568;13.402;2023-02-12T06:03:26;12.40;;;5.43;;
781;SDS011;374;52.568;13.402;2023-02-12T06:05:51;15.70;;;6.10;;
781;SDS011;374;52.568;13.402;2023-02-12T06:08:17;12.97;;;6.23;;
781;SDS011;374;52.568;13.402;2023-02-12T06:10:43;13.73;;;7.00;;
781;SDS011;374;52.568;13.402;2023-02-12T06:13:08;9.10;;;5.43;;
781;SDS011;374;52.568;13.402;2023-02-12T06:15:37;13.27;;;6.40;;
781;SDS011;374;52.568;13.402;2023-02-12T06:18:02;12.40;;;6.20;;
781;SDS011;374;52.568;13.402;2023-02-12T06:20:28;9.57;;;5.40;;
781;SDS011;374;52.568;13.402;2023-02-12T06:22:53;11.43;;;6.10;;
781;SDS011;374;52.568;13.402;2023-02-12T06:25:19;14.37;;;6.00;;
781;SDS011;374;52.568;13.402;2023-02-12T06:27:44;14.37;;;5.57;;
781;SDS011;374;52.568;13.402;2023-02-12T06:30:10;22.90;;;6.40;;
781;SDS011;374;52.568;13.402;2023-02-12T06:32:36;15.03;;;6.00;;
781;SDS011;374;52.568;13.402;2023-02-12T06:35:01;13.53;;;5.60;;
781;SDS011;374;52.568;13.402;2023-02-12T06:37:27;13.53;;;6.50;;
781;SDS011;374;52.568;13.402;2023-02-12T06:39:53;24.40;;;7.13;;
781;SDS011;374;52.568;13.402;2023-02-12T06:42:18;14.17;;;6.40;;
781;SDS011;374;52.568;13.402;2023-02-12T06:44:44;11.83;;;5.80;;
781;SDS011;374;52.568;13.402;2023-02-12T06:47:10;17.10;;;6.93;;
781;SDS011;374;52.568;13.402;2023-02-12T06:49:36;14.47;;;6.53;;
781;SDS011;374;52.568;13.402;2023-02-12T06:52:01;15.60;;;6.70;;
781;SDS011;374;52.568;13.402;2023-02-12T06:54:27;15.23;;;7.30;;
781;SDS011;374;52.568;13.402;2023-02-12T06:56:52;15.23;;;6.23;;
781;SDS011;374;52.568;13.402;2023-02-12T06:59:18;14.60;;;7.20;;
781;SDS011;374;52.568;13.402;2023-02-12T07:01:43;9.63;;;6.07;;
781;SDS011;374;52.568;13.402;2023-02-12T07:04:09;19.80;;;6.70;;
781;SDS011;374;52.568;13.402;2023-02-12T07:06:35;17.17;;;6.80;;
781;SDS011;374;52.568;13.402;2023-02-12T07:09:01;17.10;;;6.23;;
781;SDS011;374;52.568;13.402;2023-02-12T07:11:28;9.47;;;5.67;;
781;SDS011;374;52.568;13.402;2023-02-12T07:13:56;13.47;;;5.40;;
781;SDS011;374;52.568;13.402;2023-02-12T07:16:22;12.80;;;5.20;;
781;SDS011;374;52.568;13.402;2023-02-12T07:18:48;20.33;;;5.93;;
781;SDS011;374;52.568;13.402;2023-02-12T07:21:14;9.13;;;5.23;;
781;SDS011;374;52.568;13.402;2023-02-12T07:23:40;12.13;;;6.37;;
781;SDS011;374;52.568;13.402;2023-02-12T07:26:10;20.43;;;7.37;;
781;SDS011;374;52.568;13.402;2023-02-12T07:28:37;14.77;;;8.07;;
781;SDS011;374;52.568;13.402;2023-02-12T07:31:13;12.80;;;6.37;;
781;SDS011;374;52.568;13.402;2023-02-12T07:33:41;10.43;;;6.00;;
781;SDS011;374;52.568;13.402;2023-02-12T07:36:08;10.20;;;6.00;;
781;SDS011;374;52.568;13.402;2023-02-12T07:38:36;14.67;;;5.80;;
781;SDS011;374;52.568;13.402;2023-02-12T07:41:06;12.47;;;5.07;;
781;SDS011;374;52.568;13.402;2023-02-12T07:43:32;13.53;;;5.93;;
781;SDS011;374;52.568;13.402;2023-02-12T07:46:05;11.33;;;5.90;;
781;SDS011;374;52.568;13.402;2023-02-12T07:48:42;13.27;;;7.00;;
781;SDS011;374;52.568;13.402;2023-02-12T07:51:08;16.90;;;6.60;;
781;SDS011;374;52.568;13.402;2023-02-12T07:53:37;19.63;;;6.73;;
781;SDS011;374;52.568;13.402;2023-02-12T07:56:07;20.07;;;6.20;;
781;SDS011;374;52.568;13.402;2023-02-12T07:58:34;13.00;;;6.27;;
781;SDS011;374;52.568;13.402;2023-02-12T08:01:18;15.60;;;7.07;;
781;SDS011;374;52.568;13.402;2023-02-12T08:03:46;22.50;;;9.77;;
781;SDS011;374;52.568;13.402;2023-02-12T08:06:14;17.53;;;7.97;;
781;SDS011;374;52.568;13.402;2023-02-12T08:08:42;12.60;;;6.60;;
781;SDS011;374;52.568;13.402;2023-02-12T08:11:08;17.50;;;6.80;;
781;SDS011;374;52.568;13.402;2023-02-12T08:13:35;15.30;;;5.77;;
781;SDS011;374;52.568;13.402;2023-02-12T08:16:02;10.00;;;6.13;;
781;SDS011;374;52.568;13.402;2023-02-12T08:18:30;16.67;;;6.97;;
781;SDS011;374;52.568;13.402;2023-02-12T08:21:16;12.57;;;6.03;;
781;SDS011;374;52.568;13.402;2023-02-12T08:23:43;17.70;;;7.00;;
781;SDS011;374;52.568;13.402;2023-02-12T08:26:11;14.70;;;6.03;;
781;SDS011;374;52.568;13.402;2023-02-12T08:28:43;25.10;;;8.17;;
781;SDS011;374;52.568;13.402;2023-02-12T08:31:21;11.80;;;6.43;;
781;SDS011;374;52.568;13.402;2023-02-12T08:33:48;11.63;;;6.57;;
781;SDS011;374;52.568;13.402;2023-02-12T08:36:17;12.97;;;5.53;;
781;SDS011;374;52.568;13.402;2023-02-12T08:38:45;22.63;;;9.20;;
781;SDS011;374;52.568;13.402;2023-02-12T08:41:12;12.63;;;6.60;;
781;SDS011;374;52.568;13.402;2023-02-12T08:43:39;8.43;;;5.20;;
781;SDS011;374;52.568;13.402;2023-02-12T08:46:06;13.27;;;6.43;;
781;SDS011;374;52.568;13.402;2023-02-12T08:48:34;23.27;;;7.10;;
781;SDS011;374;52.568;13.402;2023-02-12T08:51:04;11.30;;;5.80;;
781;SDS011;374;52.568;13.402;2023-02-12T08:53:29;18.40;;;6.37;;
781;SDS011;374;52.568;13.402;2023-02-12T08:55:58;12.23;;;6.13;;
781;SDS011;374;52.568;13.402;2023-02-12T08:58:23;21.20;;;7.03;;
781;SDS011;374;52.568;13.402;2023-02-12T09:00:49;13.03;;;5.70;;
781;SDS011;374;52.568;13.402;2023-02-12T09:03:15;13.17;;;5.60;;
781;SDS011;374;52.568;13.402;2023-02-12T09:05:40;14.07;;;6.70;;
781;SDS011;374;52.568;13.402;2023-02-12T09:08:06;15.00;;;6.40;;
781;SDS011;374;52.568;13.402;2023-02-12T09:10:32;14.17;;;5.53;;
781;SDS011;374;52.568;13.402;2023-02-12T09:12:57;12.30;;;6.33;;
781;SDS011;374;52.568;13.402;2023-02-12T09:15:23;13.70;;;6.40;;
781;SDS011;374;52.568;13.402;2023-02-12T09:17:49;10.30;;;5.80;;
781;SDS011;374;52.568;13.402;2023-02-12T09:20:14;17.93;;;5.60;;
781;SDS011;374;52.568;13.402;2023-02-12T09:22:40;13.70;;;5.43;;
781;SDS011;374;52.568;13.402;2023-02-12T09:25:06;20.90;;;6.43;;
781;SDS011;374;52.568;13.402;2023-02-12T09:27:32;12.17;;;5.87;;
781;SDS011;374;52.568;13.402;2023-02-12T09:29:57;15.23;;;6.70;;
781;SDS011;374;52.568;13.402;2023-02-12T09:32:23;9.53;;;5.17;;
781;SDS011;374;52.568;13.402;2023-02-12T09:34:48;9.97;;;5.80;;
781;SDS011;374;52.568;13.402;2023-02-12T09:37:14;15.23;;;6.20;;
781;SDS011;374;52.568;13.402;2023-02-12T09:39:39;15.03;;;6.37;;
781;SDS011;374;52.568;13.402;2023-02-12T09:42:24;14.10;;;6.50;;
781;SDS011;374;52.568;13.402;2023-02-12T09:45:27;15.03;;;5.83;;
781;SDS011;374;52.568;13.402;2023-02-12T09:50:53;20.60;;;6.50;;
781;SDS011;374;52.568;13.402;2023-02-12T09:53:24;15.40;;;6.63;;
781;SDS011;374;52.568;13.402;2023-02-12T09:55:53;19.73;;;7.17;;
781;SDS011;374;52.568;13.402;2023-02-12T09:58:41;16.27;;;6.90;;
781;SDS011;374;52.568;13.402;2023-02-12T10:01:17;18.20;;;8.03;;
781;SDS011;374;52.568;13.402;2023-02-12T10:03:45;18.87;;;8.60;;
781;SDS011;374;52.568;13.402;2023-02-12T10:06:16;18.40;;;9.13;;
781;SDS011;374;52.568;13.402;2023-02-12T10:09:09;21.53;;;7.63;;
781;SDS011;374;52.568;13.402;2023-02-12T10:18:04;16.70;;;7.00;;
781;SDS011;374;52.568;13.402;2023-02-12T10:20:51;15.30;;;6.60;;
781;SDS011;374;52.568;13.402;2023-02-12T10:26:46;14.53;;;7.57;;
781;SDS011;374;52.568;13.402;2023-02-12T10:29:17;9.60;;;6.67;;
781;SDS011;374;52.568;13.402;2023-02-12T10:31:56;16.43;;;9.07;;
781;SDS011;374;52.568;13.402;2023-02-12T10:34:32;14.10;;;7.90;;
781;SDS011;374;52.568;13.402;2023-02-12T10:37:02;12.63;;;7.63;;
781;SDS011;374;52.568;13.402;2023-02-12T10:39:35;12.53;;;8.17;;
781;SDS011;374;52.568;13.402;2023-02-12T10:42:10;11.50;;;7.17;;
781;SDS011;374;52.568;13.402;2023-02-12T10:44:42;13.17;;;6.57;;
781;SDS011;374;52.568;13.402;2023-02-12T10:47:18;12.37;;;7.40;;
781;SDS011;374;52.568;13.402;2023-02-12T10:49:47;17.50;;;9.17;;
781;SDS011;374;52.568;13.402;2023-02-12T10:54:48;11.50;;;8.13;;
781;SDS011;374;52.568;13.402;2023-02-12T10:57:27;11.80;;;8.03;;
781;SDS011;374;52.568;13.402;2023-02-12T10:59:55;13.93;;;8.03;;
781;SDS011;374;52.568;13.402;2023-02-12T11:02:37;10.00;;;7.10;;
781;SDS011;374;52.568;13.402;2023-02-12T11:05:22;12.70;;;7.53;;
781;SDS011;374;52.568;13.402;2023-02-12T11:07:49;16.50;;;7.80;;
781;SDS011;374;52.568;13.402;2023-02-12T11:10:28;13.47;;;8.30;;
781;SDS011;374;52.568;13.402;2023-02-12T11:12:59;12.57;;;7.77;;
781;SDS011;374;52.568;13.402;2023-02-12T11:15:26;12.67;;;6.93;;
781;SDS011;374;52.568;13.402;2023-02-12T11:17:59;16.40;;;10.33;;
781;SDS011;374;52.568;13.402;2023-02-12T11:20:33;14.30;;;8.17;;
781;SDS011;374;52.568;13.402;2023-02-12T11:23:06;15.77;;;7.53;;
781;SDS011;374;52.568;13.402;2023-02-12T11:25:54;13.73;;;6.70;;
781;SDS011;374;52.568;13.402;2023-02-12T11:28:31;9.80;;;6.77;;
781;SDS011;374;52.568;13.402;2023-02-12T11:31:03;12.33;;;7.33;;
781;SDS011;374;52.568;13.402;2023-02-12T11:33:46;14.03;;;7.70;;
781;SDS011;374;52.568;13.402;2023-02-12T11:36:29;11.63;;;8.63;;
781;SDS011;374;52.568;13.402;2023-02-12T11:39:03;12.33;;;6.43;;
781;SDS011;374;52.568;13.402;2023-02-12T11:41:32;18.43;;;6.53;;
781;SDS011;374;52.568;13.402;2023-02-12T11:44:16;11.27;;;7.10;;
781;SDS011;374;52.568;13.402;2023-02-12T11:46:50;8.90;;;5.83;;
781;SDS011;374;52.568;13.402;2023-02-12T11:49:21;10.50;;;6.30;;
781;SDS011;374;52.568;13.402;2023-02-12T11:51:51;10.67;;;4.90;;
781;SDS011;374;52.568;13.402;2023-02-12T11:54:19;11.50;;;5.80;;
781;SDS011;374;52.568;13.402;2023-02-12T11:56:48;12.80;;;7.77;;
781;SDS011;374;52.568;13.402;2023-02-12T11:59:30;14.37;;;6.20;;
781;SDS011;374;52.568;13.402;2023-02-12T12:02:00;8.50;;;5.97;;
781;SDS011;374;52.568;13.402;2023-02-12T12:04:50;9.70;;;5.20;;
781;SDS011;374;52.568;13.402;2023-02-12T12:07:19;7.63;;;5.07;;
781;SDS011;374;52.568;13.402;2023-02-12T12:12:43;10.50;;;5.10;;
781;SDS011;374;52.568;13.402;2023-02-12T12:20:54;8.90;;;5.10;;
781;SDS011;374;52.568;13.402;2023-02-12T12:23:42;9.93;;;5.13;;
781;SDS011;374;52.568;13.402;2023-02-12T12:26:15;5.77;;;4.00;;
781;SDS011;374;52.568;13.402;2023-02-12T12:28:51;5.07;;;3.97;;
781;SDS011;374;52.568;13.402;2023-02-12T12:31:31;7.57;;;4.37;;
781;SDS011;374;52.568;13.402;2023-02-12T12:34:09;7.20;;;3.90;;
781;SDS011;374;52.568;13.402;2023-02-12T12:39:35;6.13;;;4.73;;
781;SDS011;374;52.568;13.402;2023-02-12T12:45:03;6.57;;;4.57;;
781;SDS011;374;52.568;13.402;2023-02-12T12:48:01;5.60;;;4.60;;
781;SDS011;374;52.568;13.402;2023-02-12T12:53:33;6.30;;;4.00;;
781;SDS011;374;52.568;13.402;2023-02-12T12:59:06;5.53;;;4.40;;
781;SDS011;374;52.568;13.402;2023-02-12T13:02:18;7.40;;;5.30;;
781;SDS011;374;52.568;13.402;2023-02-12T13:13:19;10.93;;;5.50;;
781;SDS011;374;52.568;13.402;2023-02-12T13:18:33;8.30;;;5.07;;
781;SDS011;374;52.568;13.402;2023-02-12T13:21:17;10.00;;;5.17;;
781;SDS011;374;52.568;13.402;2023-02-12T13:23:58;6.27;;;5.40;;
781;SDS011;374;52.568;13.402;2023-02-12T13:27:00;8.53;;;5.50;;
781;SDS011;374;52.568;13.402;2023-02-12T13:29:31;8.80;;;5.27;;
781;SDS011;374;52.568;13.402;2023-02-12T13:32:04;9.90;;;5.23;;
781;SDS011;374;52.568;13.402;2023-02-12T13:34:38;5.50;;;4.03;;
781;SDS011;374;52.568;13.402;2023-02-12T13:37:08;8.07;;;5.37;;
781;SDS011;374;52.568;13.402;2023-02-12T13:39:45;7.60;;;5.47;;
781;SDS011;374;52.568;13.402;2023-02-12T13:42:23;8.40;;;5.13;;
781;SDS011;374;52.568;13.402;2023-02-12T13:47:37;4.97;;;4.47;;
781;SDS011;374;52.568;13.402;2023-02-12T13:59:01;4.00;;;3.60;;
781;SDS011;374;52.568;13.402;2023-02-12T14:01:34;6.07;;;3.73;;
781;SDS011;374;52.568;13.402;2023-02-12T14:04:15;5.07;;;3.33;;
781;SDS011;374;52.568;13.402;2023-02-12T14:11:59;9.20;;;4.07;;
781;SDS011;374;52.568;13.402;2023-02-12T14:14:27;7.63;;;4.13;;
781;SDS011;374;52.568;13.402;2023-02-12T14:16:56;6.10;;;4.17;;
781;SDS011;374;52.568;13.402;2023-02-12T14:19:38;5.50;;;3.67;;
781;SDS011;374;52.568;13.402;2023-02-12T14:22:10;4.13;;;3.40;;
781;SDS011;374;52.568;13.402;2023-02-12T14:37:50;6.47;;;4.50;;
781;SDS011;374;52.568;13.402;2023-02-12T14:54:03;6.10;;;4.07;;
781;SDS011;374;52.568;13.402;2023-02-12T14:56:40;6.17;;;4.00;;
781;SDS011;374;52.568;13.402;2023-02-12T14:59:11;6.63;;;4.43;;
781;SDS011;374;52.568;13.402;2023-02-12T15:01:41;7.33;;;4.67;;
781;SDS011;374;52.568;13.402;2023-02-12T15:04:11;8.10;;;5.20;;
781;SDS011;374;52.568;13.402;2023-02-12T15:06:50;6.43;;;4.43;;
781;SDS011;374;52.568;13.402;2023-02-12T15:09:25;11.30;;;4.80;;
781;SDS011;374;52.568;13.402;2023-02-12T15:14:42;6.97;;;5.27;;
781;SDS011;374;52.568;13.402;2023-02-12T15:17:14;6.17;;;4.97;;
781;SDS011;374;52.568;13.402;2023-02-12T15:22:31;9.63;;;5.60;;
781;SDS011;374;52.568;13.402;2023-02-12T15:27:49;10.93;;;5.70;;
781;SDS011;374;52.568;13.402;2023-02-12T15:30:18;8.00;;;5.20;;
781;SDS011;374;52.568;13.402;2023-02-12T15:32:47;10.27;;;6.77;;
781;SDS011;374;52.568;13.402;2023-02-12T15:35:21;7.27;;;5.63;;
781;SDS011;374;52.568;13.402;2023-02-12T15:37:47;7.47;;;6.70;;
781;SDS011;374;52.568;13.402;2023-02-12T15:40:13;8.43;;;5.90;;
781;SDS011;374;52.568;13.402;2023-02-12T15:42:40;11.27;;;7.13;;
781;SDS011;374;52.568;13.402;2023-02-12T15:47:53;8.57;;;6.37;;
781;SDS011;374;52.568;13.402;2023-02-12T15:51:15;10.80;;;7.27;;
781;SDS011;374;52.568;13.402;2023-02-12T15:53:41;10.07;;;6.37;;
781;SDS011;374;52.568;13.402;2023-02-12T15:56:11;11.10;;;7.40;;
781;SDS011;374;52.568;13.402;2023-02-12T15:58:45;7.17;;;6.37;;
781;SDS011;374;52.568;13.402;2023-02-12T16:01:19;8.73;;;5.20;;
781;SDS011;374;52.568;13.402;2023-02-12T16:03:50;6.93;;;5.87;;
781;SDS011;374;52.568;13.402;2023-02-12T16:06:20;7.40;;;4.93;;
781;SDS011;374;52.568;13.402;2023-02-12T16:08:49;9.60;;;6.00;;
781;SDS011;374;52.568;13.402;2023-02-12T16:11:24;7.73;;;6.57;;
781;SDS011;374;52.568;13.402;2023-02-12T16:13:55;8.93;;;5.40;;
781;SDS011;374;52.568;13.402;2023-02-12T16:16:34;9.83;;;6.67;;
781;SDS011;374;52.568;13.402;2023-02-12T16:21:50;9.50;;;5.83;;
781;SDS011;374;52.568;13.402;2023-02-12T16:24:21;13.40;;;9.93;;
781;SDS011;374;52.568;13.402;2023-02-12T16:26:52;6.67;;;4.70;;
781;SDS011;374;52.568;13.402;2023-02-12T16:29:18;6.43;;;4.67;;
781;SDS011;374;52.568;13.402;2023-02-12T16:31:54;7.40;;;4.63;;
781;SDS011;374;52.568;13.402;2023-02-12T16:34:26;8.63;;;5.40;;
781;SDS011;374;52.568;13.402;2023-02-12T16:36:53;6.60;;;5.00;;
781;SDS011;374;52.568;13.402;2023-02-12T16:42:19;6.33;;;4.57;;
781;SDS011;374;52.568;13.402;2023-02-12T16:44:51;5.40;;;4.20;;
781;SDS011;374;52.568;13.402;2023-02-12T16:47:20;7.90;;;4.60;;
781;SDS011;374;52.568;13.402;2023-02-12T16:49:54;9.57;;;5.20;;
781;SDS011;374;52.568;13.402;2023-02-12T16:52:37;4.43;;;3.47;;
781;SDS011;374;52.568;13.402;2023-02-12T16:55:04;6.73;;;4.57;;
781;SDS011;374;52.568;13.402;2023-02-12T16:57:37;8.83;;;4.17;;
781;SDS011;374;52.568;13.402;2023-02-12T17:00:03;6.13;;;4.33;;
781;SDS011;374;52.568;13.402;2023-02-12T17:02:32;8.43;;;4.30;;
781;SDS011;374;52.568;13.402;2023-02-12T17:05:00;5.90;;;4.60;;
781;SDS011;374;52.568;13.402;2023-02-12T17:07:31;6.07;;;4.50;;
781;SDS011;374;52.568;13.402;2023-02-12T17:09:58;7.20;;;5.07;;
781;SDS011;374;52.568;13.402;2023-02-12T17:12:23;7.00;;;4.53;;
781;SDS011;374;52.568;13.402;2023-02-12T17:14:50;6.97;;;5.37;;
781;SDS011;374;52.568;13.402;2023-02-12T17:17:15;7.43;;;5.43;;
781;SDS011;374;52.568;13.402;2023-02-12T17:19:41;5.73;;;4.70;;
781;SDS011;374;52.568;13.402;2023-02-12T17:22:07;6.23;;;4.47;;
781;SDS011;374;52.568;13.402;2023-02-12T17:24:42;7.20;;;3.87;;
781;SDS011;374;52.568;13.402;2023-02-12T17:27:07;7.97;;;4.50;;
781;SDS011;374;52.568;13.402;2023-02-12T17:29:35;5.43;;;4.90;;
781;SDS011;374;52.568;13.402;2023-02-12T17:32:00;3.67;;;3.30;;
781;SDS011;374;52.568;13.402;2023-02-12T17:34:27;7.47;;;3.70;;
781;SDS011;374;52.568;13.402;2023-02-12T17:36:52;4.13;;;3.30;;
781;SDS011;374;52.568;13.402;2023-02-12T17:39:18;6.03;;;4.63;;
781;SDS011;374;52.568;13.402;2023-02-12T17:41:44;5.47;;;4.20;;
781;SDS011;374;52.568;13.402;2023-02-12T17:44:10;6.27;;;4.10;;
781;SDS011;374;52.568;13.402;2023-02-12T17:46:37;7.67;;;3.83;;
781;SDS011;374;52.568;13.402;2023-02-12T17:49:03;4.73;;;3.17;;
781;SDS011;374;52.568;13.402;2023-02-12T17:51:29;6.33;;;3.70;;
781;SDS011;374;52.568;13.402;2023-02-12T17:53:55;3.40;;;3.10;;
781;SDS011;374;52.568;13.402;2023-02-12T17:56:21;6.93;;;3.90;;
781;SDS011;374;52.568;13.402;2023-02-12T17:58:49;9.07;;;7.50;;
781;SDS011;374;52.568;13.402;2023-02-12T18:01:16;7.87;;;5.27;;
781;SDS011;374;52.568;13.402;2023-02-12T18:03:43;7.03;;;5.80;;